Return to the overview of this dataset or to the list of all FOR816 datasets.


Value filter for entity: Microclimate(id: 441) of dataset: Forest microclimate ECSF tree T11b midstorey (z3) (dsid: 658)

Select attribute to work with:



Order by

Aggregate by date/time

on attribute:

Draw graph of subset

    x     y1     y2  
     
Ta_2m (air temperature in 2m)
Huma_2m (Air humidity 2m)
datetime (Date and Time)

Results:

page: 1 / 95 , page size: , max results: 4748

Ta_2m Huma_2m datetime
18.9 96.1 2004-04-04 15:30:00
18.61 95.7 2004-04-04 16:00:00
18.76 93.4 2004-04-04 16:30:00
19.02 93.0 2004-04-04 17:00:00
17.97 93.0 2004-04-04 17:30:00
17.31 97.9 2004-04-04 18:00:00
16.83 98.6 2004-04-04 18:30:00
16.62 99.3 2004-04-04 19:00:00
16.43 99.9 2004-04-04 19:30:00
16.26 99.9 2004-04-04 20:00:00
16.09 99.6 2004-04-04 20:30:00
15.85 99.9 2004-04-04 21:00:00
15.83 99.9 2004-04-04 21:30:00
15.83 99.9 2004-04-04 22:00:00
15.88 99.9 2004-04-04 22:30:00
15.95 99.9 2004-04-04 23:00:00
15.95 100.3 2004-04-04 23:30:00
15.97 100.6 2004-04-05 00:00:00
16.16 97.5 2004-04-05 00:30:00
16.16 97.5 2004-04-05 01:00:00
15.93 99.6 2004-04-05 01:30:00
15.76 99.9 2004-04-05 02:00:00
15.66 99.9 2004-04-05 02:30:00
15.59 100.6 2004-04-05 03:00:00
15.38 99.9 2004-04-05 03:30:00
15.19 100.3 2004-04-05 04:00:00
15.11 100.3 2004-04-05 04:30:00
15.07 100.3 2004-04-05 05:00:00
15.09 100.6 2004-04-05 05:30:00
15.14 100.6 2004-04-05 06:00:00
15.16 99.9 2004-04-05 06:30:00
15.21 100.3 2004-04-05 07:00:00
15.3 99.6 2004-04-05 07:30:00
15.66 99.6 2004-04-05 08:00:00
16.4 91.0 2004-04-05 08:30:00
16.64 91.8 2004-04-05 09:00:00
17.5 88.0 2004-04-05 09:30:00
18.26 83.1 2004-04-05 10:00:00
18.07 84.0 2004-04-05 10:30:00
18.92 79.9 2004-04-05 11:00:00
19.21 76.5 2004-04-05 11:30:00
19.4 76.5 2004-04-05 12:00:00
19.49 76.5 2004-04-05 12:30:00
20.26 71.6 2004-04-05 13:00:00
21.45 68.6 2004-04-05 13:30:00
20.38 74.1 2004-04-05 14:00:00
20.14 73.1 2004-04-05 14:30:00
19.78 74.6 2004-04-05 15:00:00
19.23 78.4 2004-04-05 15:30:00
19.11 79.4 2004-04-05 16:00:00

page: 1 / 95 , max results: 4748


Return to the overview of this dataset or to the list of all FOR816 datasets.



Quick search

  • Publications:
  • Datasets: